Time;durP1;ratioP1;P1;durP2;ratioP2;P2;SDS_P1;SDS_P2;PMS_P1;PMS_P2;Temp;Humidity;BMP_temperature;BMP_pressure;BME280_temperature;BME280_humidity;BME280_pressure;Samples;Min_cycle;Max_cycle;Signal;HPM_P1;HPM_P2
2023/07/03 00:01:50;;;;;;;20.95;4.10;;;16.00;99.90;;;;;;5051177;28;20036;-59
2023/07/03 00:04:16;;;;;;;17.63;3.53;;;16.00;99.90;;;;;;5051077;28;20481;-56
2023/07/03 00:06:41;;;;;;;15.45;3.35;;;16.00;99.90;;;;;;5051141;28;20475;-56
2023/07/03 00:09:09;;;;;;;15.50;3.58;;;16.00;99.90;;;;;;5050942;28;20036;-56
2023/07/03 00:11:34;;;;;;;21.98;4.30;;;16.00;99.90;;;;;;5051229;28;20449;-59
2023/07/03 00:14:00;;;;;;;12.75;3.30;;;16.00;99.90;;;;;;5051002;28;20036;-58
2023/07/03 00:16:25;;;;;;;25.73;3.72;;;16.10;99.90;;;;;;5051038;28;20091;-59
2023/07/03 00:18:51;;;;;;;26.23;4.15;;;16.00;99.90;;;;;;5050826;28;20033;-58
2023/07/03 00:21:16;;;;;;;18.85;3.03;;;16.00;99.90;;;;;;5051112;28;20032;-53
2023/07/03 00:23:42;;;;;;;23.42;3.53;;;16.00;99.90;;;;;;5050874;28;20116;-60
2023/07/03 00:26:07;;;;;;;19.90;4.60;;;15.90;99.90;;;;;;5050861;28;20032;-58
2023/07/03 00:28:33;;;;;;;27.83;3.70;;;15.80;99.90;;;;;;5050864;28;20049;-56
2023/07/03 00:30:58;;;;;;;20.50;4.15;;;15.80;99.90;;;;;;5050871;28;20067;-55
2023/07/03 00:33:24;;;;;;;17.77;4.50;;;15.60;99.90;;;;;;5051044;28;20021;-56
2023/07/03 00:35:49;;;;;;;24.13;4.30;;;15.70;99.90;;;;;;5050871;28;20037;-54
2023/07/03 00:38:15;;;;;;;15.25;3.40;;;15.60;99.90;;;;;;5050770;28;20036;-57
2023/07/03 00:40:40;;;;;;;19.98;3.78;;;15.50;99.90;;;;;;5050764;28;20041;-58
2023/07/03 00:43:07;;;;;;;23.20;4.28;;;15.60;99.90;;;;;;5050643;28;20029;-56
2023/07/03 00:45:33;;;;;;;14.82;3.75;;;15.60;99.90;;;;;;5050825;28;20100;-57
2023/07/03 00:47:59;;;;;;;20.75;4.30;;;15.60;99.90;;;;;;5050637;28;20530;-58
2023/07/03 00:50:25;;;;;;;16.08;3.70;;;15.60;99.90;;;;;;5050869;28;20667;-57
2023/07/03 00:52:56;;;;;;;23.45;3.40;;;15.50;99.90;;;;;;5050837;28;20021;-57
2023/07/03 00:55:22;;;;;;;16.20;3.83;;;15.50;99.90;;;;;;5050686;28;20029;-58
2023/07/03 00:57:47;;;;;;;19.80;4.18;;;15.50;99.90;;;;;;5050554;28;20025;-60
2023/07/03 01:00:13;;;;;;;21.73;3.80;;;15.40;99.90;;;;;;5050631;28;20039;-57
2023/07/03 01:03:01;;;;;;;25.58;4.30;;;15.40;99.90;;;;;;5052685;28;20025;-52
2023/07/03 01:05:33;;;;;;;18.23;5.03;;;15.40;99.90;;;;;;5054398;28;20037;-56
2023/07/03 01:08:00;;;;;;;27.38;3.72;;;15.40;99.90;;;;;;5053932;28;20083;-57
2023/07/03 01:10:29;;;;;;;18.98;3.20;;;15.40;99.90;;;;;;5054273;28;20627;-58
2023/07/03 01:13:00;;;;;;;15.73;3.47;;;15.30;99.90;;;;;;5054239;28;20052;-60
2023/07/03 01:15:28;;;;;;;20.23;3.40;;;15.40;99.90;;;;;;5054119;28;20021;-58
2023/07/03 01:17:56;;;;;;;24.75;3.65;;;15.30;99.90;;;;;;5053905;28;20036;-60
2023/07/03 01:20:24;;;;;;;22.52;4.43;;;15.20;99.90;;;;;;5053949;28;20083;-58
2023/07/03 01:23:03;;;;;;;22.27;4.57;;;15.10;99.90;;;;;;5054100;28;20025;-58
2023/07/03 01:25:30;;;;;;;25.00;4.07;;;15.10;99.90;;;;;;5053931;28;20082;-59
2023/07/03 01:27:58;;;;;;;11.95;3.00;;;15.00;99.90;;;;;;5053737;28;20051;-59
2023/07/03 01:30:24;;;;;;;22.15;4.30;;;15.00;99.90;;;;;;5053875;28;20027;-60
2023/07/03 01:32:53;;;;;;;34.75;4.53;;;15.00;99.90;;;;;;5053840;28;20474;-59
2023/07/03 01:35:19;;;;;;;16.42;2.83;;;14.70;99.90;;;;;;5052542;28;20025;-59
2023/07/03 01:37:47;;;;;;;20.77;4.35;;;14.70;99.90;;;;;;5053615;28;20029;-57
2023/07/03 01:40:17;;;;;;;26.23;4.20;;;14.70;99.90;;;;;;5053615;28;20564;-59
2023/07/03 01:42:44;;;;;;;20.67;3.65;;;14.70;99.90;;;;;;5053788;28;20075;-58
2023/07/03 01:45:10;;;;;;;19.33;3.38;;;14.70;99.90;;;;;;5053412;28;20021;-57
2023/07/03 01:47:36;;;;;;;23.60;3.75;;;14.70;99.90;;;;;;5053577;28;20044;-58
2023/07/03 01:50:03;;;;;;;16.67;4.18;;;14.70;99.90;;;;;;5053779;28;20122;-56
2023/07/03 01:52:37;;;;;;;19.75;3.75;;;14.60;99.90;;;;;;5054126;28;20593;-57
2023/07/03 01:55:10;;;;;;;15.48;3.38;;;14.60;99.90;;;;;;5053518;28;20029;-57
2023/07/03 01:57:52;;;;;;;24.50;3.47;;;14.60;99.90;;;;;;5053365;28;20507;-53
2023/07/03 02:00:27;;;;;;;24.05;3.60;;;14.60;99.90;;;;;;5053504;28;20507;-60
2023/07/03 02:02:56;;;;;;;18.48;3.50;;;14.60;99.90;;;;;;5053358;28;20025;-58
2023/07/03 02:05:25;;;;;;;26.17;4.15;;;14.60;99.90;;;;;;5053227;28;20021;-58
2023/07/03 02:07:55;;;;;;;27.83;4.88;;;14.60;99.90;;;;;;5053123;28;20016;-57
2023/07/03 02:10:20;;;;;;;21.85;3.85;;;14.60;99.90;;;;;;5053170;28;20079;-58
2023/07/03 02:12:46;;;;;;;22.33;4.28;;;14.50;99.90;;;;;;5053174;28;20029;-57
2023/07/03 02:15:14;;;;;;;25.05;4.22;;;14.50;99.90;;;;;;5052417;28;20044;-57
2023/07/03 02:17:40;;;;;;;24.27;4.47;;;14.50;99.90;;;;;;5055545;28;20017;-59
2023/07/03 02:20:13;;;;;;;25.50;4.57;;;14.50;99.90;;;;;;5055984;28;20029;-53
2023/07/03 02:22:39;;;;;;;31.40;4.82;;;14.50;99.90;;;;;;5054588;28;20070;-60
2023/07/03 02:25:05;;;;;;;28.92;4.45;;;14.50;99.90;;;;;;5053103;28;20438;-56
2023/07/03 02:27:30;;;;;;;19.45;4.32;;;14.50;99.90;;;;;;5053209;28;20074;-59
2023/07/03 02:29:56;;;;;;;23.50;4.50;;;14.50;99.90;;;;;;5053281;28;20043;-54
2023/07/03 02:32:21;;;;;;;26.27;4.10;;;14.50;99.90;;;;;;5053117;28;20060;-59
2023/07/03 02:34:47;;;;;;;31.77;4.68;;;14.50;99.90;;;;;;5052540;28;20066;-59
2023/07/03 02:37:13;;;;;;;16.63;3.55;;;14.50;99.90;;;;;;5052486;28;20029;-59
2023/07/03 02:39:39;;;;;;;31.00;4.90;;;14.50;99.90;;;;;;5052667;28;20388;-62
2023/07/03 02:42:05;;;;;;;22.52;4.25;;;14.50;99.90;;;;;;5053004;28;20063;-56
2023/07/03 02:44:30;;;;;;;22.50;4.38;;;14.40;99.90;;;;;;5052771;28;20035;-57
2023/07/03 02:46:56;;;;;;;28.83;4.28;;;14.50;99.90;;;;;;5052314;28;20029;-59
2023/07/03 02:49:26;;;;;;;22.58;4.88;;;14.40;99.90;;;;;;5052575;28;20025;-59
2023/07/03 02:51:51;;;;;;;22.83;3.90;;;14.40;99.90;;;;;;5052362;28;20624;-55
2023/07/03 02:54:17;;;;;;;20.52;3.67;;;14.40;99.90;;;;;;5044257;28;20029;-59
2023/07/03 02:56:43;;;;;;;25.85;4.75;;;14.40;99.90;;;;;;5052276;28;20025;-58
2023/07/03 02:59:08;;;;;;;19.67;3.85;;;14.40;99.90;;;;;;5052018;28;20448;-61
2023/07/03 03:01:34;;;;;;;27.27;4.90;;;14.40;99.90;;;;;;5052287;28;20108;-53
2023/07/03 03:03:59;;;;;;;24.70;4.10;;;14.40;99.90;;;;;;5051911;28;20029;-59
2023/07/03 03:06:25;;;;;;;17.00;3.88;;;14.40;99.90;;;;;;5052033;28;20028;-61
2023/07/03 03:08:50;;;;;;;23.73;4.00;;;14.40;99.90;;;;;;5051902;28;20069;-56
2023/07/03 03:11:16;;;;;;;23.63;4.28;;;14.30;99.90;;;;;;5052115;28;20479;-61
2023/07/03 03:13:43;;;;;;;17.42;3.60;;;;;;;;;;5051932;28;20036;-59
2023/07/03 03:16:08;;;;;;;22.90;5.25;;;;;;;;;;5051860;28;20387;-59
2023/07/03 03:18:34;;;;;;;25.95;3.92;;;;;;;;;;5051869;28;20036;-60
2023/07/03 03:21:00;;;;;;;15.15;3.03;;;;;;;;;;5051719;28;20025;-61
2023/07/03 03:23:26;;;;;;;24.90;4.82;;;;;;;;;;5051924;28;20523;-60
2023/07/03 03:25:52;;;;;;;18.70;3.50;;;;;;;;;;5050771;28;20048;-60
2023/07/03 03:28:18;;;;;;;28.98;4.30;;;;;;;;;;5051672;28;20074;-61
2023/07/03 03:30:44;;;;;;;22.08;3.75;;;;;;;;;;5051747;28;20029;-57
2023/07/03 03:33:10;;;;;;;18.25;3.83;;;;;;;;;;5051731;28;20059;-55
2023/07/03 03:35:36;;;;;;;20.48;4.03;;;;;;;;;;5051702;28;20438;-57
2023/07/03 03:38:02;;;;;;;17.88;4.18;;;14.40;99.90;;;;;;5051565;28;20025;-58
2023/07/03 03:40:27;;;;;;;21.63;3.45;;;;;;;;;;5051756;28;20036;-57
2023/07/03 03:42:53;;;;;;;24.17;3.85;;;;;;;;;;5051716;28;20104;-59
2023/07/03 03:45:19;;;;;;;16.65;3.55;;;14.20;99.90;;;;;;5051521;28;20503;-59
2023/07/03 03:47:47;;;;;;;25.80;3.53;;;14.10;99.90;;;;;;5051246;28;20495;-59
2023/07/03 03:50:13;;;;;;;16.48;4.03;;;14.10;99.90;;;;;;5051314;28;20151;-59
2023/07/03 03:52:38;;;;;;;19.50;4.22;;;14.10;99.90;;;;;;5050121;28;20048;-58
2023/07/03 03:55:05;;;;;;;26.20;3.80;;;;;;;;;;5051229;28;20032;-57
2023/07/03 03:57:31;;;;;;;16.20;4.28;;;;;;;;;;5051162;28;20100;-60
2023/07/03 03:59:56;;;;;;;25.30;3.42;;;;;;;;;;5051205;28;20221;-59
2023/07/03 04:02:22;;;;;;;30.13;4.47;;;;;;;;;;5051387;28;20079;-60
2023/07/03 04:04:48;;;;;;;24.60;4.70;;;;;;;;;;5050977;28;20518;-60
2023/07/03 04:07:14;;;;;;;28.40;4.93;;;;;;;;;;5051065;28;20408;-58
2023/07/03 04:09:40;;;;;;;22.38;3.97;;;;;;;;;;5051224;28;20047;-59
2023/07/03 04:12:07;;;;;;;25.23;4.38;;;;;;;;;;5051250;28;20076;-58
2023/07/03 04:14:33;;;;;;;27.95;4.07;;;;;;;;;;5051074;28;20025;-51
2023/07/03 04:17:00;;;;;;;25.80;3.53;;;;;;;;;;5050878;28;20040;-57
2023/07/03 04:19:28;;;;;;;27.70;3.78;;;;;;;;;;5050966;28;20044;-58
2023/07/03 04:21:54;;;;;;;23.23;3.67;;;;;;;;;;5051090;28;20118;-59
2023/07/03 04:24:20;;;;;;;33.38;4.55;;;;;;;;;;5050949;28;20033;-61
2023/07/03 04:26:46;;;;;;;24.25;4.63;;;;;;;;;;5050972;28;20480;-60
2023/07/03 04:29:12;;;;;;;20.02;4.00;;;;;;;;;;5050811;28;20112;-59
2023/07/03 04:31:39;;;;;;;19.88;4.18;;;;;;;;;;5051069;28;20021;-58
2023/07/03 04:34:05;;;;;;;19.23;4.38;;;;;;;;;;5050752;28;20413;-59
2023/07/03 04:36:31;;;;;;;25.75;3.63;;;;;;;;;;5051030;28;20139;-60
2023/07/03 04:38:57;;;;;;;25.92;4.30;;;;;;;;;;5054739;28;20065;-61
2023/07/03 04:41:24;;;;;;;33.88;4.45;;;;;;;;;;5054865;28;20032;-56
2023/07/03 04:43:51;;;;;;;33.65;5.18;;;;;;;;;;5054627;28;20033;-57
2023/07/03 04:46:26;;;;;;;26.30;4.80;;;;;;;;;;5054764;28;20029;-60
2023/07/03 04:48:53;;;;;;;31.35;4.03;;;;;;;;;;5054583;28;20036;-60
2023/07/03 04:51:20;;;;;;;32.85;6.30;;;;;;;;;;5054768;28;20078;-59
2023/07/03 04:53:47;;;;;;;37.90;4.88;;;;;;;;;;5054633;28;20479;-58
2023/07/03 04:56:12;;;;;;;35.22;4.63;;;;;;;;;;5054684;28;20029;-56
2023/07/03 04:58:39;;;;;;;30.70;5.10;;;;;;;;;;5054525;28;20375;-57
2023/07/03 05:01:05;;;;;;;31.50;5.50;;;;;;;;;;5054442;28;20028;-54
2023/07/03 05:03:32;;;;;;;26.05;4.72;;;;;;;;;;5055592;28;20077;-59
2023/07/03 05:05:58;;;;;;;36.90;5.85;;;;;;;;;;5062538;28;20483;-60
2023/07/03 05:08:24;;;;;;;28.60;5.80;;;;;;;;;;5060667;28;20025;-61
2023/07/03 05:10:51;;;;;;;31.73;6.57;;;14.10;99.90;;;;;;5056377;28;20032;-59
2023/07/03 05:13:16;;;;;;;24.75;6.10;;;14.90;99.90;;;;;;5054418;28;20033;-60
2023/07/03 05:15:42;;;;;;;35.78;6.93;;;14.90;99.90;;;;;;5054121;28;20031;-57
2023/07/03 05:18:07;;;;;;;33.53;6.28;;;15.00;99.90;;;;;;5054099;28;20029;-57
2023/07/03 05:20:33;;;;;;;36.40;5.57;;;15.00;99.90;;;;;;5054409;28;20029;-54
2023/07/03 05:22:59;;;;;;;33.72;5.80;;;;;;;;;;5054509;28;20076;-57
2023/07/03 05:25:24;;;;;;;25.55;5.70;;;15.10;99.90;;;;;;5053952;28;20021;-58
2023/07/03 05:27:50;;;;;;;28.67;5.78;;;15.20;99.90;;;;;;5053766;28;20100;-58
2023/07/03 05:30:16;;;;;;;25.95;5.70;;;15.30;99.90;;;;;;5053932;28;20021;-56
2023/07/03 05:32:41;;;;;;;32.05;5.78;;;15.30;99.90;;;;;;5053851;28;20025;-58
2023/07/03 05:35:08;;;;;;;30.23;6.18;;;15.30;99.90;;;;;;5053512;28;20481;-54
2023/07/03 05:37:35;;;;;;;33.85;6.80;;;15.40;99.90;;;;;;5053678;28;20036;-53
2023/07/03 05:40:01;;;;;;;32.78;5.30;;;15.40;99.90;;;;;;5053487;28;20033;-59
2023/07/03 05:42:27;;;;;;;30.95;5.20;;;15.40;99.90;;;;;;5053828;28;20051;-59
2023/07/03 05:44:52;;;;;;;26.88;7.38;;;15.40;99.90;;;;;;5053304;28;20068;-59
2023/07/03 05:47:18;;;;;;;25.67;4.45;;;15.50;99.90;;;;;;5053374;28;20068;-57
2023/07/03 05:49:44;;;;;;;43.83;6.88;;;15.50;99.90;;;;;;5052474;28;20021;-57
2023/07/03 05:52:11;;;;;;;30.38;5.10;;;15.60;99.90;;;;;;5053595;28;20048;-55
2023/07/03 05:54:37;;;;;;;28.95;6.25;;;15.70;99.90;;;;;;5053442;28;20555;-60
2023/07/03 05:57:06;;;;;;;43.25;5.85;;;15.80;99.90;;;;;;5053160;28;20407;-59
2023/07/03 05:59:33;;;;;;;47.63;6.65;;;15.80;99.90;;;;;;5053217;28;20107;-59
2023/07/03 06:01:58;;;;;;;19.90;4.38;;;15.80;99.90;;;;;;5053258;28;20033;-58
2023/07/03 06:04:25;;;;;;;33.15;5.75;;;15.90;99.90;;;;;;5053246;28;20541;-57
2023/07/03 06:06:53;;;;;;;46.25;6.90;;;16.00;99.90;;;;;;5053182;28;20021;-59
2023/07/03 06:09:18;;;;;;;33.40;5.85;;;16.10;99.90;;;;;;5053083;28;20426;-58
2023/07/03 06:11:45;;;;;;;37.08;5.00;;;16.00;99.90;;;;;;5053164;28;20078;-59
2023/07/03 06:14:17;;;;;;;61.08;6.78;;;16.10;99.90;;;;;;5052968;28;20071;-58
2023/07/03 06:16:48;;;;;;;27.52;4.88;;;16.10;99.90;;;;;;5053106;28;20375;-56
2023/07/03 06:19:16;;;;;;;41.63;5.32;;;16.20;99.90;;;;;;5052841;28;20036;-56
2023/07/03 06:21:42;;;;;;;77.55;6.88;;;16.20;99.90;;;;;;5052893;28;20035;-57
2023/07/03 06:24:10;;;;;;;17.77;4.13;;;16.30;99.90;;;;;;5052478;28;20021;-56
2023/07/03 06:26:38;;;;;;;28.30;6.55;;;16.40;99.90;;;;;;5052593;28;20017;-57
2023/07/03 06:29:05;;;;;;;20.55;4.00;;;16.40;99.90;;;;;;5052350;28;20080;-58
2023/07/03 06:31:30;;;;;;;29.40;5.53;;;16.50;99.90;;;;;;5052866;28;20028;-58
2023/07/03 06:33:56;;;;;;;21.83;3.95;;;16.60;99.90;;;;;;5052418;28;20037;-58
2023/07/03 06:36:22;;;;;;;17.67;4.10;;;16.60;99.90;;;;;;5052394;28;20033;-59
2023/07/03 06:38:58;;;;;;;20.98;4.43;;;16.70;99.90;;;;;;5052243;28;20029;-61
2023/07/03 06:41:27;;;;;;;25.05;4.57;;;16.70;99.90;;;;;;5052498;28;20517;-59
2023/07/03 06:43:54;;;;;;;26.38;4.65;;;16.70;99.90;;;;;;5052153;28;20647;-60
2023/07/03 06:46:19;;;;;;;28.75;5.18;;;16.70;99.90;;;;;;5052623;28;20156;-59
2023/07/03 06:48:45;;;;;;;19.27;4.22;;;16.70;99.90;;;;;;5052402;28;20562;-54
2023/07/03 06:51:12;;;;;;;23.50;4.68;;;16.70;99.90;;;;;;5052488;28;20096;-60
2023/07/03 06:53:38;;;;;;;30.52;5.00;;;16.80;99.90;;;;;;5052177;28;20017;-59
2023/07/03 06:56:05;;;;;;;20.00;4.25;;;16.70;99.90;;;;;;5052235;28;20044;-61
2023/07/03 06:58:32;;;;;;;22.17;3.53;;;16.70;99.90;;;;;;5050923;28;20544;-58
2023/07/03 07:00:57;;;;;;;17.48;3.75;;;16.90;99.90;;;;;;5051902;28;20063;-58
2023/07/03 07:03:23;;;;;;;25.38;5.15;;;17.00;99.90;;;;;;5052047;28;20048;-58
2023/07/03 07:05:51;;;;;;;19.98;3.90;;;17.10;99.90;;;;;;5052030;28;20029;-62
2023/07/03 07:08:17;;;;;;;20.90;4.40;;;17.20;99.90;;;;;;5051803;28;20075;-60
2023/07/03 07:10:43;;;;;;;17.73;4.20;;;17.20;99.90;;;;;;5052279;28;20017;-56
2023/07/03 07:13:10;;;;;;;33.20;4.45;;;17.20;99.90;;;;;;5051891;28;20029;-56
2023/07/03 07:15:40;;;;;;;26.70;4.55;;;17.20;99.90;;;;;;5051991;28;20032;-59
2023/07/03 07:18:08;;;;;;;22.05;4.68;;;17.30;99.90;;;;;;5051754;28;20420;-58
2023/07/03 07:20:41;;;;;;;31.17;4.90;;;17.30;99.90;;;;;;5051734;28;20048;-60
2023/07/03 07:23:07;;;;;;;18.77;4.40;;;17.20;99.90;;;;;;5051705;28;20036;-61
2023/07/03 07:25:33;;;;;;;21.60;4.32;;;17.30;99.90;;;;;;5051646;28;20032;-59
2023/07/03 07:27:59;;;;;;;28.73;4.90;;;17.40;99.90;;;;;;5051622;28;20021;-59
2023/07/03 07:30:25;;;;;;;22.75;4.63;;;17.50;99.90;;;;;;5051757;28;20104;-57
2023/07/03 07:32:51;;;;;;;23.25;4.03;;;17.40;99.90;;;;;;5051623;28;20036;-60
2023/07/03 07:35:17;;;;;;;21.10;4.93;;;17.50;99.90;;;;;;5051461;28;20025;-61
2023/07/03 07:37:42;;;;;;;30.25;5.47;;;17.40;99.90;;;;;;5051382;28;20032;-59
2023/07/03 07:40:09;;;;;;;17.58;4.70;;;17.50;99.90;;;;;;5051310;28;20037;-58
2023/07/03 07:42:35;;;;;;;23.17;4.88;;;17.70;99.90;;;;;;5051559;28;20442;-58
2023/07/03 07:45:01;;;;;;;28.95;4.93;;;17.60;99.90;;;;;;5051257;28;20025;-58
2023/07/03 07:47:27;;;;;;;17.95;4.72;;;17.60;99.90;;;;;;5051254;28;20051;-58
2023/07/03 07:49:53;;;;;;;18.67;4.93;;;17.70;99.90;;;;;;5051297;28;20479;-57
2023/07/03 07:52:18;;;;;;;25.35;4.70;;;17.70;99.90;;;;;;5051425;28;20039;-55
2023/07/03 07:54:44;;;;;;;26.35;4.95;;;17.60;99.90;;;;;;5051282;28;20029;-57
2023/07/03 07:57:09;;;;;;;18.42;4.43;;;17.70;99.90;;;;;;5051066;28;20036;-53
2023/07/03 07:59:36;;;;;;;26.98;4.10;;;17.80;99.90;;;;;;5051188;28;20545;-54
2023/07/03 08:02:02;;;;;;;26.65;5.05;;;17.90;99.90;;;;;;5051002;28;20040;-60
2023/07/03 08:04:28;;;;;;;32.40;4.85;;;18.10;99.90;;;;;;5050817;28;20095;-56
2023/07/03 08:06:53;;;;;;;79.95;9.75;;;18.10;99.90;;;;;;5056365;28;20483;-58
2023/07/03 08:09:22;;;;;;;37.45;7.18;;;18.30;99.90;;;;;;5056145;28;20021;-61
2023/07/03 08:11:47;;;;;;;26.35;4.25;;;18.30;99.90;;;;;;5055209;28;20040;-60
2023/07/03 08:14:13;;;;;;;18.52;4.00;;;18.40;99.90;;;;;;5057808;28;20040;-59
2023/07/03 08:16:38;;;;;;;30.35;4.10;;;18.60;99.90;;;;;;5057669;28;20021;-61
2023/07/03 08:19:05;;;;;;;32.45;4.50;;;18.60;99.90;;;;;;5057385;28;20029;-60
2023/07/03 08:21:31;;;;;;;27.42;4.10;;;18.60;99.90;;;;;;5057711;28;20036;-57
2023/07/03 08:23:56;;;;;;;27.75;4.50;;;18.80;99.90;;;;;;5057228;28;20098;-61
2023/07/03 08:26:23;;;;;;;76.65;6.88;;;18.80;99.90;;;;;;5057667;28;20025;-61
2023/07/03 08:28:49;;;;;;;36.55;4.72;;;18.60;99.90;;;;;;5057570;28;20087;-61
2023/07/03 08:31:14;;;;;;;27.88;4.43;;;18.40;99.90;;;;;;5057701;28;20029;-61
2023/07/03 08:33:40;;;;;;;38.70;5.03;;;18.40;99.90;;;;;;5057439;28;20036;-58
2023/07/03 08:36:06;;;;;;;49.00;5.90;;;18.50;99.90;;;;;;5057422;28;20419;-55
2023/07/03 08:38:32;;;;;;;20.48;4.25;;;18.60;99.90;;;;;;5057425;28;20582;-55
2023/07/03 08:40:59;;;;;;;146.52;11.73;;;18.40;99.90;;;;;;5057332;28;20036;-55
2023/07/03 08:43:32;;;;;;;25.08;4.10;;;18.60;99.90;;;;;;5057445;28;20483;-60
2023/07/03 08:45:57;;;;;;;19.58;4.70;;;18.70;99.90;;;;;;5057449;28;20032;-58
2023/07/03 08:48:25;;;;;;;21.15;4.65;;;18.80;99.90;;;;;;5057348;28;20490;-61
2023/07/03 08:50:57;;;;;;;41.00;7.22;;;18.80;99.90;;;;;;5057480;28;20021;-60
2023/07/03 08:53:36;;;;;;;20.20;3.53;;;18.90;99.90;;;;;;5057459;28;20096;-60
2023/07/03 08:56:04;;;;;;;11.77;3.25;;;19.20;99.90;;;;;;5057283;28;20029;-60
2023/07/03 08:58:29;;;;;;;21.27;4.65;;;19.40;99.90;;;;;;5057116;28;20027;-60
2023/07/03 09:01:04;;;;;;;15.40;3.67;;;19.30;99.90;;;;;;5057319;28;20033;-56
2023/07/03 09:03:37;;;;;;;;;;;19.20;99.90;;;;;;5057677;28;20029;-58
2023/07/03 09:06:11;;;;;;;17.48;4.10;;;19.40;99.90;;;;;;5057350;28;20394;-58
2023/07/03 09:09:11;;;;;;;37.90;5.63;;;19.70;99.90;;;;;;5057199;28;20127;-57
2023/07/03 09:11:39;;;;;;;11.38;3.00;;;19.60;99.90;;;;;;5057141;28;20032;-61
2023/07/03 09:14:09;;;;;;;33.28;4.20;;;19.60;99.90;;;;;;5057254;28;20029;-56
2023/07/03 09:16:35;;;;;;;18.80;3.00;;;19.50;99.90;;;;;;5057164;28;20032;-57
2023/07/03 09:19:06;;;;;;;16.17;3.95;;;19.50;99.90;;;;;;5056930;28;20017;-58
2023/07/03 09:21:35;;;;;;;20.35;3.20;;;19.80;99.90;;;;;;5057387;28;20439;-55
2023/07/03 09:24:20;;;;;;;20.67;3.30;;;19.90;99.90;;;;;;5054898;28;20029;-56
2023/07/03 09:27:09;;;;;;;25.00;4.00;;;19.60;99.90;;;;;;5054046;28;20021;-57
2023/07/03 09:29:36;;;;;;;15.75;4.43;;;19.40;99.90;;;;;;5054002;28;20021;-59
2023/07/03 09:32:02;;;;;;;14.07;3.35;;;19.50;99.90;;;;;;5053771;28;20025;-60
2023/07/03 09:34:27;;;;;;;14.50;3.20;;;19.50;99.90;;;;;;5053685;28;20029;-60
2023/07/03 09:37:00;;;;;;;13.73;3.20;;;19.60;99.90;;;;;;5053750;28;20084;-59
2023/07/03 09:39:26;;;;;;;25.27;4.43;;;19.70;99.90;;;;;;5053802;28;20033;-60
2023/07/03 09:41:53;;;;;;;12.85;3.35;;;19.70;99.90;;;;;;5053564;28;20037;-58
2023/07/03 09:44:22;;;;;;;23.73;3.55;;;19.80;99.90;;;;;;5053514;28;20104;-59
2023/07/03 09:46:47;;;;;;;29.25;4.85;;;19.80;99.90;;;;;;5053659;28;20032;-60
2023/07/03 09:49:17;;;;;;;20.05;3.22;;;19.50;99.90;;;;;;5053483;28;20458;-59
2023/07/03 09:51:43;;;;;;;16.02;3.17;;;19.30;99.90;;;;;;5053511;28;20067;-58
2023/07/03 09:54:21;;;;;;;19.80;4.22;;;19.50;99.90;;;;;;5053215;28;20057;-60
2023/07/03 09:56:49;;;;;;;34.13;4.43;;;19.40;99.90;;;;;;5053510;28;20090;-59
2023/07/03 09:59:18;;;;;;;25.63;2.97;;;19.20;99.90;;;;;;5053362;28;20028;-56
2023/07/03 10:01:44;;;;;;;21.88;3.50;;;19.20;99.90;;;;;;5053538;28;20028;-55
2023/07/03 10:04:11;;;;;;;13.50;3.67;;;19.40;99.90;;;;;;5053370;28;20492;-59
2023/07/03 10:06:38;;;;;;;12.77;3.35;;;19.40;99.90;;;;;;5053453;28;20060;-59
2023/07/03 10:09:24;;;;;;;17.35;3.90;;;19.50;99.90;;;;;;5053193;28;20036;-51
2023/07/03 10:11:56;;;;;;;15.93;3.85;;;19.30;99.90;;;;;;5053304;28;20065;-56
2023/07/03 10:14:27;;;;;;;21.40;4.00;;;19.40;99.90;;;;;;5053212;28;20117;-58
2023/07/03 10:16:53;;;;;;;11.85;3.70;;;19.40;99.90;;;;;;5053101;28;20053;-58
2023/07/03 10:19:20;;;;;;;16.17;3.83;;;19.40;99.90;;;;;;5052906;28;20029;-57
2023/07/03 10:21:47;;;;;;;15.73;3.60;;;19.60;99.90;;;;;;5052963;28;20064;-55
2023/07/03 10:24:13;;;;;;;11.57;3.28;;;19.60;99.90;;;;;;5052677;28;20033;-58
2023/07/03 10:26:47;;;;;;;10.73;4.25;;;19.90;99.90;;;;;;5052968;28;20017;-55
2023/07/03 10:29:28;;;;;;;12.60;3.83;;;20.40;99.90;;;;;;5052813;28;20021;-57
2023/07/03 10:32:03;;;;;;;13.43;3.35;;;20.60;99.90;;;;;;5052919;28;20064;-58
2023/07/03 10:34:48;;;;;;;9.57;3.22;;;20.60;99.90;;;;;;5052178;28;20029;-60
2023/07/03 10:37:17;;;;;;;27.33;3.95;;;20.20;99.90;;;;;;5052594;28;20487;-54
2023/07/03 10:40:12;;;;;;;13.57;3.60;;;19.90;99.90;;;;;;5052894;28;20035;-58
2023/07/03 10:42:59;;;;;;;22.63;3.85;;;19.80;99.90;;;;;;5052706;28;20533;-57
2023/07/03 10:45:30;;;;;;;31.58;4.78;;;19.80;99.90;;;;;;5052559;28;20029;-56
2023/07/03 10:48:11;;;;;;;29.23;4.78;;;19.70;99.90;;;;;;5052423;28;20066;-59
2023/07/03 10:50:54;;;;;;;10.07;3.28;;;19.80;99.90;;;;;;5052829;28;20017;-58
2023/07/03 10:53:47;;;;;;;16.10;3.55;;;20.20;99.90;;;;;;5052253;28;20025;-60
2023/07/03 10:56:37;;;;;;;22.63;3.97;;;20.70;99.90;;;;;;5052033;28;20101;-60
2023/07/03 10:59:21;;;;;;;9.95;3.20;;;21.00;99.90;;;;;;5051994;28;20096;-57
2023/07/03 11:01:55;;;;;;;14.93;3.35;;;21.00;99.90;;;;;;5052215;28;20017;-59
2023/07/03 11:04:38;;;;;;;18.85;4.35;;;20.80;99.90;;;;;;5051947;28;20025;-59
2023/07/03 11:07:24;;;;;;;13.80;3.22;;;20.70;99.90;;;;;;5051820;28;20491;-58
2023/07/03 11:10:16;;;;;;;14.35;3.22;;;20.60;99.90;;;;;;5051886;28;20025;-60
2023/07/03 11:13:18;;;;;;;13.57;2.97;;;20.50;99.90;;;;;;5052207;28;20025;-60
2023/07/03 11:16:02;;;;;;;12.00;3.05;;;20.40;99.90;;;;;;5051639;28;20028;-60
2023/07/03 11:18:51;;;;;;;18.52;4.55;;;20.40;99.90;;;;;;5051822;28;20104;-54
2023/07/03 11:21:22;;;;;;;13.10;3.33;;;20.30;99.90;;;;;;5051967;28;20087;-56
2023/07/03 11:24:09;;;;;;;13.52;4.10;;;20.40;99.90;;;;;;5051724;28;20028;-58
2023/07/03 11:26:38;;;;;;;9.68;3.78;;;20.40;99.90;;;;;;5051687;28;20033;-56
2023/07/03 11:29:07;;;;;;;13.27;3.58;;;20.30;99.90;;;;;;5051501;28;20025;-57
2023/07/03 11:31:34;;;;;;;9.35;3.47;;;20.20;99.90;;;;;;5051801;28;20495;-57
2023/07/03 11:34:02;;;;;;;13.02;3.67;;;20.10;99.90;;;;;;5051691;28;20053;-56
2023/07/03 11:36:44;;;;;;;16.80;4.00;;;20.20;99.90;;;;;;5051750;28;20025;-61
2023/07/03 11:39:28;;;;;;;11.43;3.25;;;20.10;99.90;;;;;;5051492;28;20041;-54
2023/07/03 11:41:54;;;;;;;15.25;3.10;;;20.10;99.90;;;;;;5051504;28;20033;-57
2023/07/03 11:44:37;;;;;;;14.48;3.25;;;20.40;99.90;;;;;;5051289;28;20514;-56
2023/07/03 11:47:10;;;;;;;14.63;3.63;;;20.70;99.90;;;;;;5050549;28;20017;-60
2023/07/03 11:49:53;;;;;;;15.85;3.33;;;20.80;99.90;;;;;;5051578;28;20013;-60
2023/07/03 11:52:46;;;;;;;17.95;4.03;;;20.90;99.90;;;;;;5051568;28;20075;-56
2023/07/03 11:55:20;;;;;;;11.13;3.53;;;21.00;99.90;;;;;;5051287;28;20025;-59
2023/07/03 11:57:49;;;;;;;;;;;21.20;99.90;;;;;;5051514;28;20060;-59
2023/07/03 12:00:29;;;;;;;15.43;4.38;;;21.30;99.90;;;;;;5051217;28;19911;-60
2023/07/03 12:02:58;;;;;;;13.15;3.45;;;21.10;99.90;;;;;;5051346;28;20042;-59
2023/07/03 12:05:42;;;;;;;21.70;3.60;;;21.40;99.90;;;;;;5051051;28;20086;-60
2023/07/03 12:08:17;;;;;;;8.68;2.65;;;21.60;99.90;;;;;;5051009;28;20479;-58
2023/07/03 12:10:52;;;;;;;14.57;3.10;;;22.00;99.90;;;;;;5051447;28;20071;-61
2023/07/03 12:13:39;;;;;;;10.40;2.97;;;22.20;99.60;;;;;;5051189;28;20471;-53
2023/07/03 12:16:27;;;;;;;10.60;2.97;;;22.70;99.10;;;;;;5051013;28;20032;-61
2023/07/03 12:19:05;;;;;;;52.33;5.85;;;22.90;97.90;;;;;;5050888;28;20103;-58
2023/07/03 12:21:47;;;;;;;13.38;3.50;;;22.40;96.90;;;;;;5051079;28;20505;-59
2023/07/03 12:24:23;;;;;;;13.98;3.13;;;21.80;97.30;;;;;;5050881;28;20510;-57
2023/07/03 12:26:51;;;;;;;29.55;3.88;;;21.20;98.00;;;;;;5051000;28;20032;-55
2023/07/03 12:29:18;;;;;;;15.43;3.90;;;20.90;99.90;;;;;;5050880;28;20025;-54
2023/07/03 12:31:56;;;;;;;21.20;4.55;;;20.90;99.90;;;;;;5050875;28;20100;-59
2023/07/03 12:34:26;;;;;;;14.65;3.30;;;20.70;99.90;;;;;;5051028;28;20029;-60
2023/07/03 12:37:02;;;;;;;13.00;3.78;;;20.60;99.90;;;;;;5050788;28;20021;-58
2023/07/03 12:39:28;;;;;;;16.10;4.18;;;20.50;99.90;;;;;;5050858;28;20090;-58
2023/07/03 12:41:53;;;;;;;13.13;3.90;;;20.60;99.90;;;;;;5050755;28;20037;-57
2023/07/03 12:44:22;;;;;;;10.82;4.32;;;20.70;99.90;;;;;;5050652;28;20560;-60
2023/07/03 12:46:48;;;;;;;15.15;4.22;;;20.80;99.90;;;;;;5050802;28;20094;-58
2023/07/03 12:49:16;;;;;;;16.60;4.18;;;20.90;99.90;;;;;;5050664;28;20426;-58
2023/07/03 12:51:53;;;;;;;11.70;4.13;;;21.30;99.90;;;;;;5050828;28;20082;-55
2023/07/03 12:54:20;;;;;;;165.40;19.58;;;21.80;99.90;;;;;;5050813;28;20027;-54
2023/07/03 12:56:47;;;;;;;134.10;15.45;;;22.10;99.90;;;;;;5050749;28;20108;-54
2023/07/03 12:59:17;;;;;;;258.52;26.08;;;22.50;98.60;;;;;;5053147;28;20439;-54
2023/07/03 13:01:50;;;;;;;177.80;21.45;;;22.70;98.50;;;;;;5054654;28;20039;-58